sensor_id;sensor_type;location;lat;lon;timestamp;P1;durP1;ratioP1;P2;durP2;ratioP2
57561;SDS011;43397;51.530;5.974;2023-02-15T00:01:34;51.55;;;28.65;;
57561;SDS011;43397;51.530;5.974;2023-02-15T00:04:01;47.13;;;28.85;;
57561;SDS011;43397;51.530;5.974;2023-02-15T00:06:29;49.80;;;28.70;;
57561;SDS011;43397;51.530;5.974;2023-02-15T00:08:55;56.17;;;30.30;;
57561;SDS011;43397;51.530;5.974;2023-02-15T00:11:21;53.00;;;30.33;;
57561;SDS011;43397;51.530;5.974;2023-02-15T00:13:47;51.88;;;29.90;;
57561;SDS011;43397;51.530;5.974;2023-02-15T00:16:13;48.22;;;28.60;;
57561;SDS011;43397;51.530;5.974;2023-02-15T00:18:40;54.85;;;30.40;;
57561;SDS011;43397;51.530;5.974;2023-02-15T00:21:06;49.60;;;28.73;;
57561;SDS011;43397;51.530;5.974;2023-02-15T00:23:35;48.58;;;28.05;;
57561;SDS011;43397;51.530;5.974;2023-02-15T00:26:05;51.22;;;29.60;;
57561;SDS011;43397;51.530;5.974;2023-02-15T00:28:32;48.33;;;27.90;;
57561;SDS011;43397;51.530;5.974;2023-02-15T00:31:02;51.47;;;28.63;;
57561;SDS011;43397;51.530;5.974;2023-02-15T00:33:32;48.33;;;26.77;;
57561;SDS011;43397;51.530;5.974;2023-02-15T00:35:59;45.30;;;26.25;;
57561;SDS011;43397;51.530;5.974;2023-02-15T00:38:26;48.58;;;26.65;;
57561;SDS011;43397;51.530;5.974;2023-02-15T00:40:53;47.63;;;26.23;;
57561;SDS011;43397;51.530;5.974;2023-02-15T00:43:19;46.40;;;27.63;;
57561;SDS011;43397;51.530;5.974;2023-02-15T00:45:45;41.17;;;25.67;;
57561;SDS011;43397;51.530;5.974;2023-02-15T00:48:11;40.65;;;24.50;;
57561;SDS011;43397;51.530;5.974;2023-02-15T00:50:38;47.30;;;27.65;;
57561;SDS011;43397;51.530;5.974;2023-02-15T00:53:05;44.75;;;26.65;;
57561;SDS011;43397;51.530;5.974;2023-02-15T00:55:32;41.92;;;25.08;;
57561;SDS011;43397;51.530;5.974;2023-02-15T00:57:58;45.95;;;27.13;;
57561;SDS011;43397;51.530;5.974;2023-02-15T01:00:24;52.25;;;27.95;;
57561;SDS011;43397;51.530;5.974;2023-02-15T01:02:50;43.67;;;25.45;;
57561;SDS011;43397;51.530;5.974;2023-02-15T01:05:16;48.95;;;25.52;;
57561;SDS011;43397;51.530;5.974;2023-02-15T01:07:42;43.63;;;22.95;;
57561;SDS011;43397;51.530;5.974;2023-02-15T01:10:09;42.35;;;21.50;;
57561;SDS011;43397;51.530;5.974;2023-02-15T01:12:35;54.60;;;22.48;;
57561;SDS011;43397;51.530;5.974;2023-02-15T01:15:01;40.22;;;22.15;;
57561;SDS011;43397;51.530;5.974;2023-02-15T01:17:26;41.40;;;24.77;;
57561;SDS011;43397;51.530;5.974;2023-02-15T01:19:52;41.95;;;24.90;;
57561;SDS011;43397;51.530;5.974;2023-02-15T01:22:18;47.45;;;25.77;;
57561;SDS011;43397;51.530;5.974;2023-02-15T01:24:44;43.03;;;26.67;;
57561;SDS011;43397;51.530;5.974;2023-02-15T01:27:12;43.85;;;25.63;;
57561;SDS011;43397;51.530;5.974;2023-02-15T01:29:37;46.67;;;27.85;;
57561;SDS011;43397;51.530;5.974;2023-02-15T01:32:03;44.63;;;27.52;;
57561;SDS011;43397;51.530;5.974;2023-02-15T01:34:29;45.70;;;27.23;;
57561;SDS011;43397;51.530;5.974;2023-02-15T01:36:55;47.58;;;26.52;;
57561;SDS011;43397;51.530;5.974;2023-02-15T01:39:22;51.75;;;28.65;;
57561;SDS011;43397;51.530;5.974;2023-02-15T01:41:47;49.95;;;27.33;;
57561;SDS011;43397;51.530;5.974;2023-02-15T01:47:17;53.80;;;26.83;;
57561;SDS011;43397;51.530;5.974;2023-02-15T01:49:47;49.53;;;28.02;;
57561;SDS011;43397;51.530;5.974;2023-02-15T01:52:14;49.08;;;27.90;;
57561;SDS011;43397;51.530;5.974;2023-02-15T01:54:43;44.72;;;28.02;;
57561;SDS011;43397;51.530;5.974;2023-02-15T01:57:13;48.03;;;26.98;;
57561;SDS011;43397;51.530;5.974;2023-02-15T01:59:44;54.90;;;29.80;;
57561;SDS011;43397;51.530;5.974;2023-02-15T02:04:43;48.03;;;27.55;;
57561;SDS011;43397;51.530;5.974;2023-02-15T02:07:14;55.15;;;27.67;;
57561;SDS011;43397;51.530;5.974;2023-02-15T02:09:42;49.65;;;29.35;;
57561;SDS011;43397;51.530;5.974;2023-02-15T02:12:09;53.15;;;30.33;;
57561;SDS011;43397;51.530;5.974;2023-02-15T02:14:35;47.58;;;28.88;;
57561;SDS011;43397;51.530;5.974;2023-02-15T02:17:03;51.17;;;28.90;;
57561;SDS011;43397;51.530;5.974;2023-02-15T02:19:53;56.22;;;29.20;;
57561;SDS011;43397;51.530;5.974;2023-02-15T02:25:50;51.67;;;26.90;;
57561;SDS011;43397;51.530;5.974;2023-02-15T02:28:51;51.15;;;28.40;;
57561;SDS011;43397;51.530;5.974;2023-02-15T02:31:43;50.65;;;27.80;;
57561;SDS011;43397;51.530;5.974;2023-02-15T02:34:24;57.70;;;28.92;;
57561;SDS011;43397;51.530;5.974;2023-02-15T02:36:55;52.70;;;30.98;;
57561;SDS011;43397;51.530;5.974;2023-02-15T02:39:28;53.70;;;30.38;;
57561;SDS011;43397;51.530;5.974;2023-02-15T02:42:01;50.20;;;28.17;;
57561;SDS011;43397;51.530;5.974;2023-02-15T02:44:33;71.43;;;27.02;;
57561;SDS011;43397;51.530;5.974;2023-02-15T02:47:05;46.97;;;25.48;;
57561;SDS011;43397;51.530;5.974;2023-02-15T02:49:38;49.95;;;26.15;;
57561;SDS011;43397;51.530;5.974;2023-02-15T02:52:06;52.38;;;25.23;;
57561;SDS011;43397;51.530;5.974;2023-02-15T02:54:48;44.70;;;24.17;;
57561;SDS011;43397;51.530;5.974;2023-02-15T02:57:14;46.92;;;25.90;;
57561;SDS011;43397;51.530;5.974;2023-02-15T02:59:40;49.25;;;27.13;;
57561;SDS011;43397;51.530;5.974;2023-02-15T03:02:10;53.08;;;28.85;;
57561;SDS011;43397;51.530;5.974;2023-02-15T03:07:09;56.10;;;27.95;;
57561;SDS011;43397;51.530;5.974;2023-02-15T03:09:38;51.58;;;27.88;;
57561;SDS011;43397;51.530;5.974;2023-02-15T03:12:06;54.95;;;29.58;;
57561;SDS011;43397;51.530;5.974;2023-02-15T03:14:33;53.38;;;28.90;;
57561;SDS011;43397;51.530;5.974;2023-02-15T03:17:00;56.97;;;30.80;;
57561;SDS011;43397;51.530;5.974;2023-02-15T03:19:29;56.60;;;29.17;;
57561;SDS011;43397;51.530;5.974;2023-02-15T03:22:00;55.78;;;29.80;;
57561;SDS011;43397;51.530;5.974;2023-02-15T03:24:31;57.97;;;29.75;;
57561;SDS011;43397;51.530;5.974;2023-02-15T03:27:00;53.85;;;29.60;;
57561;SDS011;43397;51.530;5.974;2023-02-15T03:29:29;53.40;;;28.85;;
57561;SDS011;43397;51.530;5.974;2023-02-15T03:31:58;45.55;;;25.17;;
57561;SDS011;43397;51.530;5.974;2023-02-15T03:34:25;50.20;;;26.00;;
57561;SDS011;43397;51.530;5.974;2023-02-15T03:36:52;46.95;;;25.48;;
57561;SDS011;43397;51.530;5.974;2023-02-15T03:39:26;46.42;;;26.75;;
57561;SDS011;43397;51.530;5.974;2023-02-15T03:41:58;48.97;;;26.35;;
57561;SDS011;43397;51.530;5.974;2023-02-15T03:44:35;49.00;;;26.23;;
57561;SDS011;43397;51.530;5.974;2023-02-15T03:47:08;54.58;;;27.52;;
57561;SDS011;43397;51.530;5.974;2023-02-15T03:49:40;51.20;;;27.85;;
57561;SDS011;43397;51.530;5.974;2023-02-15T03:52:10;52.00;;;28.65;;
57561;SDS011;43397;51.530;5.974;2023-02-15T03:54:40;48.55;;;28.50;;
57561;SDS011;43397;51.530;5.974;2023-02-15T03:57:07;54.38;;;29.08;;
57561;SDS011;43397;51.530;5.974;2023-02-15T04:02:04;60.92;;;29.23;;
57561;SDS011;43397;51.530;5.974;2023-02-15T04:04:39;54.55;;;28.63;;
57561;SDS011;43397;51.530;5.974;2023-02-15T04:07:09;52.15;;;29.25;;
57561;SDS011;43397;51.530;5.974;2023-02-15T04:09:35;62.60;;;32.83;;
57561;SDS011;43397;51.530;5.974;2023-02-15T04:12:02;52.08;;;28.85;;
57561;SDS011;43397;51.530;5.974;2023-02-15T04:14:28;52.25;;;27.65;;
57561;SDS011;43397;51.530;5.974;2023-02-15T04:16:54;58.42;;;28.10;;
57561;SDS011;43397;51.530;5.974;2023-02-15T04:19:20;58.22;;;29.33;;
57561;SDS011;43397;51.530;5.974;2023-02-15T04:21:46;58.72;;;29.67;;
57561;SDS011;43397;51.530;5.974;2023-02-15T04:24:11;53.55;;;29.25;;
57561;SDS011;43397;51.530;5.974;2023-02-15T04:26:38;56.70;;;29.30;;
57561;SDS011;43397;51.530;5.974;2023-02-15T04:29:05;58.58;;;30.50;;
57561;SDS011;43397;51.530;5.974;2023-02-15T04:31:30;62.08;;;30.48;;
57561;SDS011;43397;51.530;5.974;2023-02-15T04:33:56;69.43;;;30.10;;
57561;SDS011;43397;51.530;5.974;2023-02-15T04:36:22;60.67;;;31.42;;
57561;SDS011;43397;51.530;5.974;2023-02-15T04:38:48;63.53;;;30.77;;
57561;SDS011;43397;51.530;5.974;2023-02-15T04:41:14;61.80;;;30.15;;
57561;SDS011;43397;51.530;5.974;2023-02-15T04:43:39;54.88;;;29.17;;
57561;SDS011;43397;51.530;5.974;2023-02-15T04:46:07;56.80;;;30.95;;
57561;SDS011;43397;51.530;5.974;2023-02-15T04:48:32;66.50;;;33.33;;
57561;SDS011;43397;51.530;5.974;2023-02-15T04:50:58;54.92;;;30.80;;
57561;SDS011;43397;51.530;5.974;2023-02-15T04:53:24;59.50;;;29.77;;
57561;SDS011;43397;51.530;5.974;2023-02-15T04:55:49;52.55;;;28.30;;
57561;SDS011;43397;51.530;5.974;2023-02-15T04:58:15;54.50;;;29.27;;
57561;SDS011;43397;51.530;5.974;2023-02-15T05:00:41;59.75;;;28.95;;
57561;SDS011;43397;51.530;5.974;2023-02-15T05:03:08;61.97;;;31.23;;
57561;SDS011;43397;51.530;5.974;2023-02-15T05:05:34;62.78;;;30.25;;
57561;SDS011;43397;51.530;5.974;2023-02-15T05:07:59;66.18;;;32.22;;
57561;SDS011;43397;51.530;5.974;2023-02-15T05:10:25;74.15;;;34.75;;
57561;SDS011;43397;51.530;5.974;2023-02-15T05:12:51;64.13;;;33.05;;
57561;SDS011;43397;51.530;5.974;2023-02-15T05:15:17;66.60;;;33.13;;
57561;SDS011;43397;51.530;5.974;2023-02-15T05:17:44;70.05;;;34.42;;
57561;SDS011;43397;51.530;5.974;2023-02-15T05:20:11;72.65;;;32.85;;
57561;SDS011;43397;51.530;5.974;2023-02-15T05:22:37;74.25;;;34.47;;
57561;SDS011;43397;51.530;5.974;2023-02-15T05:25:03;65.47;;;31.02;;
57561;SDS011;43397;51.530;5.974;2023-02-15T05:27:29;67.65;;;32.72;;
57561;SDS011;43397;51.530;5.974;2023-02-15T05:29:56;67.75;;;32.45;;
57561;SDS011;43397;51.530;5.974;2023-02-15T05:32:22;63.50;;;30.95;;
57561;SDS011;43397;51.530;5.974;2023-02-15T05:34:47;59.38;;;29.52;;
57561;SDS011;43397;51.530;5.974;2023-02-15T05:37:14;55.92;;;28.90;;
57561;SDS011;43397;51.530;5.974;2023-02-15T05:39:40;60.63;;;29.63;;
57561;SDS011;43397;51.530;5.974;2023-02-15T05:42:06;56.70;;;30.13;;
57561;SDS011;43397;51.530;5.974;2023-02-15T05:44:32;59.08;;;31.17;;
57561;SDS011;43397;51.530;5.974;2023-02-15T05:46:57;60.78;;;30.88;;
57561;SDS011;43397;51.530;5.974;2023-02-15T05:49:24;61.35;;;32.55;;
57561;SDS011;43397;51.530;5.974;2023-02-15T05:51:49;69.90;;;33.58;;
57561;SDS011;43397;51.530;5.974;2023-02-15T05:54:17;66.03;;;31.60;;
57561;SDS011;43397;51.530;5.974;2023-02-15T05:56:42;65.03;;;30.70;;
57561;SDS011;43397;51.530;5.974;2023-02-15T05:59:08;62.28;;;30.40;;
57561;SDS011;43397;51.530;5.974;2023-02-15T06:01:34;58.70;;;30.95;;
57561;SDS011;43397;51.530;5.974;2023-02-15T06:04:00;63.45;;;31.73;;
57561;SDS011;43397;51.530;5.974;2023-02-15T06:06:25;67.22;;;34.97;;
57561;SDS011;43397;51.530;5.974;2023-02-15T06:08:51;82.22;;;35.90;;
57561;SDS011;43397;51.530;5.974;2023-02-15T06:11:18;78.93;;;36.90;;
57561;SDS011;43397;51.530;5.974;2023-02-15T06:13:44;84.95;;;38.45;;
57561;SDS011;43397;51.530;5.974;2023-02-15T06:16:09;93.38;;;38.88;;
57561;SDS011;43397;51.530;5.974;2023-02-15T06:18:35;86.30;;;38.58;;
57561;SDS011;43397;51.530;5.974;2023-02-15T06:21:01;76.40;;;37.22;;
57561;SDS011;43397;51.530;5.974;2023-02-15T06:23:27;79.90;;;39.90;;
57561;SDS011;43397;51.530;5.974;2023-02-15T06:25:53;72.55;;;35.58;;
57561;SDS011;43397;51.530;5.974;2023-02-15T06:28:20;73.38;;;35.78;;
57561;SDS011;43397;51.530;5.974;2023-02-15T06:30:46;65.53;;;33.10;;
57561;SDS011;43397;51.530;5.974;2023-02-15T06:33:12;72.47;;;34.30;;
57561;SDS011;43397;51.530;5.974;2023-02-15T06:35:37;66.65;;;35.00;;
57561;SDS011;43397;51.530;5.974;2023-02-15T06:38:03;76.78;;;34.95;;
57561;SDS011;43397;51.530;5.974;2023-02-15T06:40:29;66.82;;;32.53;;
57561;SDS011;43397;51.530;5.974;2023-02-15T06:42:54;68.53;;;35.63;;
57561;SDS011;43397;51.530;5.974;2023-02-15T06:45:22;69.05;;;34.10;;
57561;SDS011;43397;51.530;5.974;2023-02-15T06:47:47;76.72;;;36.53;;
57561;SDS011;43397;51.530;5.974;2023-02-15T06:50:13;71.43;;;35.70;;
57561;SDS011;43397;51.530;5.974;2023-02-15T06:52:39;70.75;;;35.50;;
57561;SDS011;43397;51.530;5.974;2023-02-15T06:55:05;69.97;;;36.42;;
57561;SDS011;43397;51.530;5.974;2023-02-15T06:57:31;70.95;;;36.58;;
57561;SDS011;43397;51.530;5.974;2023-02-15T06:59:57;77.45;;;36.20;;
57561;SDS011;43397;51.530;5.974;2023-02-15T07:02:24;73.65;;;35.55;;
57561;SDS011;43397;51.530;5.974;2023-02-15T07:04:50;74.40;;;37.30;;
57561;SDS011;43397;51.530;5.974;2023-02-15T07:07:16;78.40;;;37.20;;
57561;SDS011;43397;51.530;5.974;2023-02-15T07:09:42;73.22;;;36.63;;
57561;SDS011;43397;51.530;5.974;2023-02-15T07:12:09;81.63;;;38.45;;
57561;SDS011;43397;51.530;5.974;2023-02-15T07:14:35;80.93;;;36.85;;
57561;SDS011;43397;51.530;5.974;2023-02-15T07:17:02;75.32;;;37.40;;
57561;SDS011;43397;51.530;5.974;2023-02-15T07:19:29;68.43;;;35.85;;
57561;SDS011;43397;51.530;5.974;2023-02-15T07:21:55;69.47;;;34.65;;
57561;SDS011;43397;51.530;5.974;2023-02-15T07:24:20;68.03;;;34.40;;
57561;SDS011;43397;51.530;5.974;2023-02-15T07:26:46;68.78;;;35.17;;
57561;SDS011;43397;51.530;5.974;2023-02-15T07:29:12;68.40;;;35.03;;
57561;SDS011;43397;51.530;5.974;2023-02-15T07:31:38;79.15;;;36.92;;
57561;SDS011;43397;51.530;5.974;2023-02-15T07:34:05;67.90;;;35.53;;
57561;SDS011;43397;51.530;5.974;2023-02-15T07:36:32;66.25;;;34.08;;
57561;SDS011;43397;51.530;5.974;2023-02-15T07:38:59;68.95;;;33.85;;
57561;SDS011;43397;51.530;5.974;2023-02-15T07:41:26;70.55;;;34.95;;
57561;SDS011;43397;51.530;5.974;2023-02-15T07:43:52;69.63;;;37.78;;
57561;SDS011;43397;51.530;5.974;2023-02-15T07:46:18;72.85;;;37.25;;
57561;SDS011;43397;51.530;5.974;2023-02-15T07:48:43;72.43;;;34.83;;
57561;SDS011;43397;51.530;5.974;2023-02-15T07:51:10;69.68;;;35.22;;
57561;SDS011;43397;51.530;5.974;2023-02-15T07:53:38;68.43;;;36.92;;
57561;SDS011;43397;51.530;5.974;2023-02-15T07:56:05;72.63;;;36.58;;
57561;SDS011;43397;51.530;5.974;2023-02-15T07:58:32;74.22;;;38.08;;
57561;SDS011;43397;51.530;5.974;2023-02-15T08:00:59;73.65;;;38.17;;
57561;SDS011;43397;51.530;5.974;2023-02-15T08:03:25;78.35;;;39.50;;
57561;SDS011;43397;51.530;5.974;2023-02-15T08:05:51;80.45;;;37.47;;
57561;SDS011;43397;51.530;5.974;2023-02-15T08:08:20;83.28;;;42.08;;
57561;SDS011;43397;51.530;5.974;2023-02-15T08:10:47;81.88;;;40.17;;
57561;SDS011;43397;51.530;5.974;2023-02-15T08:13:13;77.03;;;40.20;;
57561;SDS011;43397;51.530;5.974;2023-02-15T08:15:38;85.45;;;40.80;;
57561;SDS011;43397;51.530;5.974;2023-02-15T08:18:04;84.85;;;40.83;;
57561;SDS011;43397;51.530;5.974;2023-02-15T08:20:31;87.68;;;43.33;;
57561;SDS011;43397;51.530;5.974;2023-02-15T08:22:56;83.45;;;42.58;;
57561;SDS011;43397;51.530;5.974;2023-02-15T08:25:22;80.53;;;43.15;;
57561;SDS011;43397;51.530;5.974;2023-02-15T08:27:50;84.43;;;42.63;;
57561;SDS011;43397;51.530;5.974;2023-02-15T08:30:16;80.95;;;41.10;;
57561;SDS011;43397;51.530;5.974;2023-02-15T08:32:42;85.75;;;43.13;;
57561;SDS011;43397;51.530;5.974;2023-02-15T08:35:07;81.18;;;44.83;;
57561;SDS011;43397;51.530;5.974;2023-02-15T08:37:33;86.85;;;44.80;;
57561;SDS011;43397;51.530;5.974;2023-02-15T08:39:59;86.95;;;43.78;;
57561;SDS011;43397;51.530;5.974;2023-02-15T08:42:27;74.45;;;39.95;;
57561;SDS011;43397;51.530;5.974;2023-02-15T08:44:54;76.35;;;40.17;;
57561;SDS011;43397;51.530;5.974;2023-02-15T08:47:21;77.25;;;41.47;;
57561;SDS011;43397;51.530;5.974;2023-02-15T08:49:48;74.38;;;40.90;;
57561;SDS011;43397;51.530;5.974;2023-02-15T08:52:14;67.40;;;37.28;;
57561;SDS011;43397;51.530;5.974;2023-02-15T08:54:40;70.10;;;37.50;;
57561;SDS011;43397;51.530;5.974;2023-02-15T08:57:06;67.05;;;38.05;;
57561;SDS011;43397;51.530;5.974;2023-02-15T08:59:32;60.63;;;35.88;;
57561;SDS011;43397;51.530;5.974;2023-02-15T09:02:00;64.50;;;37.10;;
57561;SDS011;43397;51.530;5.974;2023-02-15T09:04:26;62.70;;;35.08;;
57561;SDS011;43397;51.530;5.974;2023-02-15T09:06:52;59.20;;;33.17;;
57561;SDS011;43397;51.530;5.974;2023-02-15T09:09:18;55.80;;;34.65;;
57561;SDS011;43397;51.530;5.974;2023-02-15T09:11:45;57.35;;;33.58;;
57561;SDS011;43397;51.530;5.974;2023-02-15T09:14:13;53.40;;;33.28;;
57561;SDS011;43397;51.530;5.974;2023-02-15T09:16:40;55.22;;;31.70;;
57561;SDS011;43397;51.530;5.974;2023-02-15T09:19:09;56.33;;;32.22;;
57561;SDS011;43397;51.530;5.974;2023-02-15T09:21:36;57.00;;;34.10;;
57561;SDS011;43397;51.530;5.974;2023-02-15T09:24:05;52.67;;;30.23;;
57561;SDS011;43397;51.530;5.974;2023-02-15T09:26:34;53.70;;;32.05;;
57561;SDS011;43397;51.530;5.974;2023-02-15T09:29:03;54.60;;;32.35;;
57561;SDS011;43397;51.530;5.974;2023-02-15T09:31:29;53.88;;;31.95;;
57561;SDS011;43397;51.530;5.974;2023-02-15T09:33:57;51.28;;;29.85;;
57561;SDS011;43397;51.530;5.974;2023-02-15T09:36:26;44.72;;;29.33;;
57561;SDS011;43397;51.530;5.974;2023-02-15T09:38:54;46.97;;;28.80;;
57561;SDS011;43397;51.530;5.974;2023-02-15T09:44:17;48.75;;;30.15;;
57561;SDS011;43397;51.530;5.974;2023-02-15T09:46:58;47.45;;;30.92;;
57561;SDS011;43397;51.530;5.974;2023-02-15T09:49:44;49.15;;;29.60;;
57561;SDS011;43397;51.530;5.974;2023-02-15T09:52:26;44.63;;;28.85;;
57561;SDS011;43397;51.530;5.974;2023-02-15T09:55:04;44.35;;;30.05;;
57561;SDS011;43397;51.530;5.974;2023-02-15T09:57:43;49.75;;;28.88;;
57561;SDS011;43397;51.530;5.974;2023-02-15T10:00:19;42.58;;;28.08;;
57561;SDS011;43397;51.530;5.974;2023-02-15T10:05:47;44.40;;;28.23;;
57561;SDS011;43397;51.530;5.974;2023-02-15T10:08:35;43.45;;;29.75;;
57561;SDS011;43397;51.530;5.974;2023-02-15T10:11:11;43.55;;;25.23;;
57561;SDS011;43397;51.530;5.974;2023-02-15T10:13:43;39.03;;;26.80;;
57561;SDS011;43397;51.530;5.974;2023-02-15T10:16:17;41.28;;;27.58;;
57561;SDS011;43397;51.530;5.974;2023-02-15T10:18:54;43.92;;;28.17;;
57561;SDS011;43397;51.530;5.974;2023-02-15T10:21:32;41.17;;;27.48;;
57561;SDS011;43397;51.530;5.974;2023-02-15T10:26:47;42.72;;;26.65;;
57561;SDS011;43397;51.530;5.974;2023-02-15T10:29:16;41.90;;;27.95;;
57561;SDS011;43397;51.530;5.974;2023-02-15T10:31:51;43.38;;;27.35;;
57561;SDS011;43397;51.530;5.974;2023-02-15T10:34:26;42.33;;;28.00;;
57561;SDS011;43397;51.530;5.974;2023-02-15T10:37:08;45.13;;;27.50;;
57561;SDS011;43397;51.530;5.974;2023-02-15T10:40:00;44.08;;;27.58;;
57561;SDS011;43397;51.530;5.974;2023-02-15T10:42:35;41.23;;;27.33;;
57561;SDS011;43397;51.530;5.974;2023-02-15T10:45:15;41.70;;;27.73;;
57561;SDS011;43397;51.530;5.974;2023-02-15T10:48:04;40.92;;;28.00;;
57561;SDS011;43397;51.530;5.974;2023-02-15T10:51:00;42.85;;;24.92;;
57561;SDS011;43397;51.530;5.974;2023-02-15T10:56:19;39.10;;;25.30;;
57561;SDS011;43397;51.530;5.974;2023-02-15T10:58:53;38.80;;;25.73;;
57561;SDS011;43397;51.530;5.974;2023-02-15T11:01:34;38.67;;;24.88;;
57561;SDS011;43397;51.530;5.974;2023-02-15T11:04:08;36.45;;;21.67;;
57561;SDS011;43397;51.530;5.974;2023-02-15T11:06:59;36.55;;;22.88;;
57561;SDS011;43397;51.530;5.974;2023-02-15T11:12:16;38.35;;;23.02;;
57561;SDS011;43397;51.530;5.974;2023-02-15T11:14:45;38.92;;;22.88;;
57561;SDS011;43397;51.530;5.974;2023-02-15T11:17:17;37.50;;;23.80;;
57561;SDS011;43397;51.530;5.974;2023-02-15T11:19:50;35.50;;;22.05;;
57561;SDS011;43397;51.530;5.974;2023-02-15T11:22:23;37.00;;;23.20;;
57561;SDS011;43397;51.530;5.974;2023-02-15T11:24:49;36.08;;;22.25;;
57561;SDS011;43397;51.530;5.974;2023-02-15T11:27:19;39.83;;;25.15;;
57561;SDS011;43397;51.530;5.974;2023-02-15T11:29:50;38.22;;;24.77;;
57561;SDS011;43397;51.530;5.974;2023-02-15T11:32:21;35.63;;;23.58;;
57561;SDS011;43397;51.530;5.974;2023-02-15T11:34:51;36.03;;;23.98;;
57561;SDS011;43397;51.530;5.974;2023-02-15T11:37:23;37.10;;;23.88;;
57561;SDS011;43397;51.530;5.974;2023-02-15T11:39:53;34.72;;;22.38;;
57561;SDS011;43397;51.530;5.974;2023-02-15T11:42:21;35.80;;;23.08;;
57561;SDS011;43397;51.530;5.974;2023-02-15T11:44:53;36.67;;;25.02;;
57561;SDS011;43397;51.530;5.974;2023-02-15T11:47:25;31.30;;;21.48;;
57561;SDS011;43397;51.530;5.974;2023-02-15T11:49:51;37.75;;;23.65;;
57561;SDS011;43397;51.530;5.974;2023-02-15T11:52:17;32.50;;;22.70;;
57561;SDS011;43397;51.530;5.974;2023-02-15T11:54:45;35.08;;;22.20;;
57561;SDS011;43397;51.530;5.974;2023-02-15T11:57:14;32.83;;;21.90;;
57561;SDS011;43397;51.530;5.974;2023-02-15T11:59:49;31.60;;;21.67;;
57561;SDS011;43397;51.530;5.974;2023-02-15T12:02:20;34.00;;;22.90;;
57561;SDS011;43397;51.530;5.974;2023-02-15T12:04:48;33.40;;;22.27;;
57561;SDS011;43397;51.530;5.974;2023-02-15T12:07:20;32.35;;;21.38;;
57561;SDS011;43397;51.530;5.974;2023-02-15T12:09:50;30.17;;;20.73;;
57561;SDS011;43397;51.530;5.974;2023-02-15T12:12:23;31.85;;;20.65;;
57561;SDS011;43397;51.530;5.974;2023-02-15T12:14:52;34.15;;;22.88;;
57561;SDS011;43397;51.530;5.974;2023-02-15T12:17:20;30.83;;;21.20;;
57561;SDS011;43397;51.530;5.974;2023-02-15T12:19:48;31.95;;;21.48;;
57561;SDS011;43397;51.530;5.974;2023-02-15T12:22:23;33.20;;;20.95;;
57561;SDS011;43397;51.530;5.974;2023-02-15T12:24:51;31.45;;;20.73;;
57561;SDS011;43397;51.530;5.974;2023-02-15T12:27:20;30.27;;;20.63;;
57561;SDS011;43397;51.530;5.974;2023-02-15T12:29:49;32.05;;;20.98;;
57561;SDS011;43397;51.530;5.974;2023-02-15T12:32:19;34.78;;;22.55;;
57561;SDS011;43397;51.530;5.974;2023-02-15T12:34:48;33.88;;;22.38;;
57561;SDS011;43397;51.530;5.974;2023-02-15T12:37:17;28.95;;;21.77;;
57561;SDS011;43397;51.530;5.974;2023-02-15T12:39:50;32.75;;;22.15;;
57561;SDS011;43397;51.530;5.974;2023-02-15T12:42:18;28.65;;;20.00;;
57561;SDS011;43397;51.530;5.974;2023-02-15T12:44:53;30.45;;;20.55;;
57561;SDS011;43397;51.530;5.974;2023-02-15T12:47:21;28.95;;;20.77;;
57561;SDS011;43397;51.530;5.974;2023-02-15T12:50:03;34.08;;;21.67;;
57561;SDS011;43397;51.530;5.974;2023-02-15T12:52:42;31.73;;;21.77;;
57561;SDS011;43397;51.530;5.974;2023-02-15T12:55:17;30.48;;;21.45;;
57561;SDS011;43397;51.530;5.974;2023-02-15T12:57:45;31.52;;;20.65;;
57561;SDS011;43397;51.530;5.974;2023-02-15T13:00:25;31.98;;;20.65;;
57561;SDS011;43397;51.530;5.974;2023-02-15T13:02:55;31.73;;;22.02;;
57561;SDS011;43397;51.530;5.974;2023-02-15T13:05:24;31.35;;;21.67;;
57561;SDS011;43397;51.530;5.974;2023-02-15T13:07:56;30.63;;;22.05;;
57561;SDS011;43397;51.530;5.974;2023-02-15T13:10:25;34.33;;;20.92;;
57561;SDS011;43397;51.530;5.974;2023-02-15T13:15:24;28.70;;;19.60;;
57561;SDS011;43397;51.530;5.974;2023-02-15T13:17:55;29.35;;;20.23;;
57561;SDS011;43397;51.530;5.974;2023-02-15T13:20:22;33.37;;;21.67;;
57561;SDS011;43397;51.530;5.974;2023-02-15T13:22:50;32.00;;;21.20;;
57561;SDS011;43397;51.530;5.974;2023-02-15T13:25:20;30.02;;;20.98;;
57561;SDS011;43397;51.530;5.974;2023-02-15T13:27:50;30.33;;;21.42;;
57561;SDS011;43397;51.530;5.974;2023-02-15T13:30:22;34.17;;;21.98;;
57561;SDS011;43397;51.530;5.974;2023-02-15T13:32:51;33.83;;;21.67;;
57561;SDS011;43397;51.530;5.974;2023-02-15T13:35:20;30.50;;;21.95;;
57561;SDS011;43397;51.530;5.974;2023-02-15T13:37:56;31.15;;;21.92;;
57561;SDS011;43397;51.530;5.974;2023-02-15T13:40:32;31.35;;;22.38;;
57561;SDS011;43397;51.530;5.974;2023-02-15T13:43:03;30.08;;;20.83;;
57561;SDS011;43397;51.530;5.974;2023-02-15T13:45:40;32.58;;;22.25;;
57561;SDS011;43397;51.530;5.974;2023-02-15T13:48:22;32.03;;;20.63;;
57561;SDS011;43397;51.530;5.974;2023-02-15T13:51:01;34.42;;;22.20;;
57561;SDS011;43397;51.530;5.974;2023-02-15T13:53:43;33.08;;;21.63;;
57561;SDS011;43397;51.530;5.974;2023-02-15T13:56:28;36.80;;;22.23;;
57561;SDS011;43397;51.530;5.974;2023-02-15T13:59:09;30.63;;;21.67;;
57561;SDS011;43397;51.530;5.974;2023-02-15T14:01:48;32.95;;;22.17;;
57561;SDS011;43397;51.530;5.974;2023-02-15T14:07:26;37.38;;;22.20;;
57561;SDS011;43397;51.530;5.974;2023-02-15T14:10:10;32.10;;;22.67;;
57561;SDS011;43397;51.530;5.974;2023-02-15T14:12:51;32.22;;;22.83;;
57561;SDS011;43397;51.530;5.974;2023-02-15T14:15:32;35.40;;;21.67;;
57561;SDS011;43397;51.530;5.974;2023-02-15T14:18:10;33.83;;;22.02;;
57561;SDS011;43397;51.530;5.974;2023-02-15T14:20:44;37.15;;;23.10;;
57561;SDS011;43397;51.530;5.974;2023-02-15T14:23:25;37.17;;;22.27;;
57561;SDS011;43397;51.530;5.974;2023-02-15T14:26:02;34.45;;;22.40;;
57561;SDS011;43397;51.530;5.974;2023-02-15T14:28:37;37.13;;;23.50;;
57561;SDS011;43397;51.530;5.974;2023-02-15T14:31:11;38.20;;;22.25;;
57561;SDS011;43397;51.530;5.974;2023-02-15T14:33:42;37.40;;;23.02;;
57561;SDS011;43397;51.530;5.974;2023-02-15T14:36:15;34.55;;;22.83;;
57561;SDS011;43397;51.530;5.974;2023-02-15T14:38:47;40.03;;;23.88;;
57561;SDS011;43397;51.530;5.974;2023-02-15T14:41:20;40.00;;;23.20;;
57561;SDS011;43397;51.530;5.974;2023-02-15T14:43:55;38.47;;;22.80;;
57561;SDS011;43397;51.530;5.974;2023-02-15T14:46:30;34.92;;;22.92;;
57561;SDS011;43397;51.530;5.974;2023-02-15T14:49:06;38.78;;;24.27;;
57561;SDS011;43397;51.530;5.974;2023-02-15T14:51:58;38.90;;;23.15;;
57561;SDS011;43397;51.530;5.974;2023-02-15T14:57:22;38.50;;;26.10;;
57561;SDS011;43397;51.530;5.974;2023-02-15T14:59:50;38.55;;;26.20;;
57561;SDS011;43397;51.530;5.974;2023-02-15T15:02:20;43.10;;;26.38;;
57561;SDS011;43397;51.530;5.974;2023-02-15T15:04:55;39.97;;;26.20;;
57561;SDS011;43397;51.530;5.974;2023-02-15T15:07:23;41.78;;;28.50;;
57561;SDS011;43397;51.530;5.974;2023-02-15T15:09:57;42.22;;;28.45;;
57561;SDS011;43397;51.530;5.974;2023-02-15T15:12:39;44.30;;;27.33;;